Time;durP1;ratioP1;P1;durP2;ratioP2;P2;SDS_P1;SDS_P2;PMS_P1;PMS_P2;Temp;Humidity;BMP_temperature;BMP_pressure;BME280_temperature;BME280_humidity;BME280_pressure;Samples;Min_cycle;Max_cycle;Signal;HPM_P1;HPM_P2
2021/01/16 00:00:43;;;;;;;6.53;3.53;;;;;;;-6.36;100.00;101891.34;5051251;28;20560;-68
2021/01/16 00:03:10;;;;;;;4.70;3.00;;;;;;;-6.30;100.00;101893.47;5063617;28;20099;-69
2021/01/16 00:05:37;;;;;;;4.73;3.40;;;;;;;-6.26;100.00;101887.72;5026684;28;20036;-68
2021/01/16 00:08:05;;;;;;;5.43;3.43;;;;;;;-6.21;100.00;101881.22;5059552;28;20754;-69
2021/01/16 00:10:36;;;;;;;5.63;3.97;;;;;;;-6.16;100.00;101876.34;5073296;28;20127;-69
2021/01/16 00:13:03;;;;;;;9.80;5.13;;;;;;;-6.12;100.00;101865.50;5047126;28;20135;-68
2021/01/16 00:15:30;;;;;;;9.90;6.33;;;;;;;-6.08;100.00;101875.19;5042293;28;20086;-69
2021/01/16 00:18:01;;;;;;;10.77;6.80;;;;;;;-6.03;100.00;101872.13;5059555;28;20041;-68
2021/01/16 00:20:28;;;;;;;10.20;6.70;;;;;;;-5.99;100.00;101870.63;5044794;28;20037;-69
2021/01/16 00:22:54;;;;;;;8.57;6.10;;;;;;;-5.94;100.00;101865.81;5054476;28;20625;-68
2021/01/16 00:25:20;;;;;;;8.83;5.67;;;;;;;-5.90;100.00;101865.19;5042191;28;20127;-69
2021/01/16 00:27:46;;;;;;;9.57;6.00;;;;;;;-5.86;100.00;101862.91;5066649;28;20048;-68
2021/01/16 00:30:14;;;;;;;9.63;5.10;;;;;;;-5.82;100.00;101864.84;5062829;28;20447;-69
2021/01/16 00:32:41;;;;;;;5.13;4.20;;;;;;;-5.78;100.00;101858.25;5039511;28;20047;-69
2021/01/16 00:35:12;;;;;;;6.40;3.87;;;;;;;-5.77;100.00;101860.91;5046635;28;20040;-68
2021/01/16 00:37:38;;;;;;;8.43;4.63;;;;;;;-5.73;100.00;101860.28;5051204;28;20048;-68
2021/01/16 00:40:07;;;;;;;9.47;4.70;;;;;;;-5.68;100.00;101866.66;5053285;28;20098;-69
2021/01/16 00:42:38;;;;;;;9.80;5.67;;;;;;;-5.64;100.00;101859.09;5074670;28;20080;-69
2021/01/16 00:45:05;;;;;;;9.03;5.43;;;;;;;-5.63;100.00;101864.38;5071745;28;20025;-68
2021/01/16 00:47:34;;;;;;;9.23;5.10;;;;;;;-5.60;100.00;101871.41;5070454;28;20040;-68
2021/01/16 00:50:01;;;;;;;6.07;3.83;;;;;;;-5.58;100.00;101864.66;5031651;28;20041;-69
2021/01/16 00:52:27;;;;;;;8.47;4.90;;;;;;;-5.57;100.00;101869.00;5036906;28;20095;-69
2021/01/16 00:54:53;;;;;;;7.37;3.90;;;;;;;-5.55;100.00;101867.41;5073247;28;20044;-69
2021/01/16 00:57:19;;;;;;;8.63;4.77;;;;;;;-5.53;100.00;101863.28;5066977;28;20454;-69
2021/01/16 00:59:46;;;;;;;8.67;4.93;;;;;;;-5.51;100.00;101866.81;5051469;28;20040;-69
2021/01/16 01:02:12;;;;;;;7.27;4.20;;;;;;;-5.49;100.00;101875.53;5055602;28;20043;-69
2021/01/16 01:04:38;;;;;;;6.77;3.93;;;;;;;-5.48;100.00;101877.31;5072283;28;20401;-68
2021/01/16 01:07:09;;;;;;;5.03;3.17;;;;;;;-5.46;100.00;101870.59;5079313;28;20089;-69
2021/01/16 01:09:37;;;;;;;5.60;3.13;;;;;;;-5.44;100.00;101869.88;5054329;28;20066;-69
2021/01/16 01:12:03;;;;;;;7.23;3.10;;;;;;;-5.41;100.00;101866.59;5077402;28;20120;-68
2021/01/16 01:14:29;;;;;;;3.87;2.73;;;;;;;-5.40;100.00;101864.13;5079817;28;20067;-69
2021/01/16 01:16:55;;;;;;;5.47;2.63;;;;;;;-5.37;100.00;101866.03;5056105;28;20060;-69
2021/01/16 01:19:22;;;;;;;4.47;2.60;;;;;;;-5.37;100.00;101860.88;5075650;28;20117;-68
2021/01/16 01:21:48;;;;;;;4.43;2.47;;;;;;;-5.35;100.00;101860.97;5069728;28;20036;-69
2021/01/16 01:24:14;;;;;;;6.60;2.50;;;;;;;-5.34;100.00;101863.63;5080109;28;20090;-69
2021/01/16 01:26:40;;;;;;;3.80;2.50;;;;;;;-5.33;100.00;101857.69;5075483;28;20079;-69
2021/01/16 01:29:06;;;;;;;4.80;3.20;;;;;;;-5.32;100.00;101850.84;5065640;28;20033;-69
2021/01/16 01:31:32;;;;;;;5.17;2.77;;;;;;;-5.29;100.00;101856.22;5057073;28;20036;-69
2021/01/16 01:33:59;;;;;;;4.90;2.53;;;;;;;-5.27;100.00;101849.44;5069999;28;20098;-68
2021/01/16 01:36:25;;;;;;;5.97;2.70;;;;;;;-5.26;100.00;101844.41;5074117;28;20028;-69
2021/01/16 01:38:51;;;;;;;4.23;2.53;;;;;;;-5.23;100.00;101848.84;5085573;28;20130;-69
2021/01/16 01:41:17;;;;;;;3.30;2.33;;;;;;;-5.23;100.00;101852.28;5077590;28;20037;-69
2021/01/16 01:43:43;;;;;;;3.93;2.40;;;;;;;-5.21;100.00;101842.13;5078055;28;20064;-68
2021/01/16 01:46:10;;;;;;;4.13;2.50;;;;;;;-5.20;100.00;101855.09;5054413;28;20064;-69
2021/01/16 01:48:36;;;;;;;3.83;2.40;;;;;;;-5.20;100.00;101844.78;5063866;28;20509;-68
2021/01/16 01:51:02;;;;;;;4.50;2.60;;;;;;;-5.20;100.00;101843.91;5068537;28;20044;-69
2021/01/16 01:53:29;;;;;;;3.83;2.50;;;;;;;-5.19;100.00;101843.97;5069789;28;20037;-69
2021/01/16 01:55:57;;;;;;;4.73;2.73;;;;;;;-5.17;100.00;101844.97;5049935;28;20068;-69
2021/01/16 01:58:24;;;;;;;4.63;2.40;;;;;;;-5.15;100.00;101847.63;5051510;28;20028;-69
2021/01/16 02:00:52;;;;;;;4.73;2.17;;;;;;;-5.15;100.00;101837.31;5048276;28;20035;-69
2021/01/16 02:03:25;;;;;;;5.77;3.07;;;;;;;-5.12;100.00;101834.94;5066500;28;20139;-69
2021/01/16 02:05:54;;;;;;;4.57;2.47;;;;;;;-5.11;100.00;101832.47;5050050;28;20258;-69
2021/01/16 02:08:21;;;;;;;4.53;2.60;;;;;;;-5.10;100.00;101835.94;5049876;28;20033;-69
2021/01/16 02:10:47;;;;;;;4.40;2.90;;;;;;;-5.08;100.00;101838.59;5048228;28;20044;-69
2021/01/16 02:13:14;;;;;;;6.07;2.83;;;;;;;-5.07;100.00;101836.09;5065729;28;20080;-69
2021/01/16 02:16:04;;;;;;;4.90;2.43;;;;;;;-5.02;100.00;101831.25;5048864;28;20041;-69
2021/01/16 02:18:37;;;;;;;4.90;3.20;;;;;;;-5.01;100.00;101831.34;5044309;28;20040;-69
2021/01/16 02:21:05;;;;;;;5.73;2.90;;;;;;;-4.99;100.00;101827.16;5047410;28;20102;-69
2021/01/16 02:23:33;;;;;;;4.60;2.50;;;;;;;-4.98;100.00;101831.50;5067692;28;20044;-69
2021/01/16 02:26:30;;;;;;;6.50;3.03;;;;;;;-4.98;100.00;101821.19;5048364;28;20051;-69
2021/01/16 02:28:58;;;;;;;6.17;3.40;;;;;;;-4.91;100.00;101822.47;5066708;28;20072;-69
2021/01/16 02:31:31;;;;;;;4.13;2.73;;;;;;;-4.89;100.00;101829.47;5045288;28;20073;-69
2021/01/16 02:33:59;;;;;;;3.90;2.80;;;;;;;-4.84;100.00;101824.63;5037766;28;20052;-69
2021/01/16 02:36:41;;;;;;;7.27;3.03;;;;;;;-4.74;100.00;101821.78;5048710;28;20033;-69
2021/01/16 02:39:27;;;;;;;6.10;3.03;;;;;;;-4.68;100.00;101819.56;5053146;28;20040;-69
2021/01/16 02:41:57;;;;;;;4.60;2.80;;;;;;;-4.63;100.00;101820.72;5067303;28;20080;-69
2021/01/16 02:44:42;;;;;;;5.57;3.10;;;;;;;-4.58;100.00;101823.59;5044960;28;20031;-69
2021/01/16 02:47:25;;;;;;;;;;;;;;;-4.54;100.00;101821.28;5049308;28;20129;-69
2021/01/16 02:50:11;;;;;;;5.73;2.97;;;;;;;-4.47;99.93;101813.88;5048279;28;20582;-69
2021/01/16 02:52:44;;;;;;;4.53;2.50;;;;;;;-4.42;99.33;101815.06;5046971;28;20414;-71
2021/01/16 02:55:11;;;;;;;7.10;3.10;;;;;;;-4.42;98.85;101803.06;5063551;28;20039;-70
2021/01/16 02:57:37;;;;;;;6.43;3.50;;;;;;;-4.38;98.50;101807.56;5051630;28;20097;-70
2021/01/16 03:00:08;;;;;;;5.40;2.83;;;;;;;-4.32;98.18;101804.47;5047919;28;20063;-70
2021/01/16 03:02:34;;;;;;;6.80;2.90;;;;;;;-4.27;97.02;101803.06;5056859;28;20047;-70
2021/01/16 03:05:01;;;;;;;6.27;3.40;;;;;;;-4.25;96.63;101809.19;5051463;28;20162;-70
2021/01/16 03:07:28;;;;;;;5.50;2.97;;;;;;;-4.25;96.71;101804.91;5070397;28;20397;-70
2021/01/16 03:09:56;;;;;;;5.10;2.63;;;;;;;-4.21;96.38;101800.81;5043198;28;20505;-70
2021/01/16 03:12:23;;;;;;;6.70;3.00;;;;;;;-4.20;96.14;101809.44;5049323;28;20093;-70
2021/01/16 03:14:57;;;;;;;5.27;3.63;;;;;;;-4.21;96.32;101805.06;5043369;28;20115;-71
2021/01/16 03:17:42;;;;;;;7.90;3.58;;;;;;;-4.21;96.42;101805.97;5043411;28;20036;-70
2021/01/16 03:20:08;;;;;;;;;;;;;;;-4.17;96.33;101809.63;5064914;28;20044;-70
2021/01/16 03:22:34;;;;;;;7.37;3.10;;;;;;;-4.17;96.13;101805.34;5045645;28;19931;-70
2021/01/16 03:25:00;;;;;;;4.13;3.00;;;;;;;-4.07;94.48;101810.22;5053484;28;20032;-70
2021/01/16 03:27:26;;;;;;;4.27;2.87;;;;;;;-4.10;95.03;101799.75;5048116;28;20051;-70
2021/01/16 03:29:53;;;;;;;8.50;3.47;;;;;;;-4.08;94.95;101803.28;5042583;28;20071;-70
2021/01/16 03:32:20;;;;;;;6.13;3.03;;;;;;;-4.08;95.85;101792.97;5039175;28;20079;-70
2021/01/16 03:34:47;;;;;;;5.73;3.40;;;;;;;-4.05;95.57;101787.97;5043982;28;20115;-70
2021/01/16 03:37:14;;;;;;;6.27;3.70;;;;;;;-4.04;95.09;101794.00;5048353;28;20064;-70
2021/01/16 03:39:40;;;;;;;7.77;4.10;;;;;;;-4.06;95.26;101791.34;5030351;28;20502;-70
2021/01/16 03:42:08;;;;;;;6.30;3.90;;;;;;;-4.02;95.26;101788.16;5045356;28;20090;-70
2021/01/16 03:44:34;;;;;;;6.27;3.30;;;;;;;-4.03;95.22;101785.50;5047588;28;20049;-70
2021/01/16 03:47:01;;;;;;;6.83;3.67;;;;;;;-4.04;95.98;101786.28;5064430;28;22053;-70
2021/01/16 03:49:28;;;;;;;7.07;3.63;;;;;;;-4.06;96.37;101783.59;5046948;28;20040;-70
2021/01/16 03:51:54;;;;;;;6.50;3.70;;;;;;;-4.06;96.58;101788.78;5067504;28;20497;-70
2021/01/16 03:54:20;;;;;;;7.50;3.30;;;;;;;-4.05;96.35;101784.50;5048298;28;20098;-69
2021/01/16 03:56:47;;;;;;;6.93;3.90;;;;;;;-4.04;96.87;101784.56;5075504;28;20044;-70
2021/01/16 03:59:14;;;;;;;9.97;4.00;;;;;;;-4.05;97.08;101781.91;5031212;28;20052;-70
2021/01/16 04:01:40;;;;;;;6.23;3.67;;;;;;;-4.06;97.19;101781.03;5068620;28;20051;-70
2021/01/16 04:04:06;;;;;;;6.73;4.03;;;;;;;-4.07;97.14;101771.50;5039633;28;20036;-70
2021/01/16 04:06:32;;;;;;;7.67;4.43;;;;;;;-4.02;97.66;101775.25;5030930;28;20097;-70
2021/01/16 04:08:59;;;;;;;8.30;4.23;;;;;;;-4.01;97.23;101779.59;5064140;28;20040;-70
2021/01/16 04:11:25;;;;;;;6.77;4.17;;;;;;;-4.04;97.96;101774.25;5069563;28;20044;-70
2021/01/16 04:13:51;;;;;;;8.07;3.90;;;;;;;-4.05;98.39;101772.47;5073771;28;20374;-70
2021/01/16 04:16:17;;;;;;;9.00;4.10;;;;;;;-4.04;98.75;101763.03;5055433;28;20048;-70
2021/01/16 04:18:43;;;;;;;8.20;4.37;;;;;;;-4.04;98.85;101766.50;5072245;28;20044;-70
2021/01/16 04:21:09;;;;;;;8.43;4.00;;;;;;;-4.07;98.86;101771.50;5077638;28;20082;-70
2021/01/16 04:23:35;;;;;;;8.10;4.40;;;;;;;-4.00;98.58;101758.16;5053667;28;20509;-70
2021/01/16 04:26:02;;;;;;;7.23;3.80;;;;;;;-4.02;98.71;101759.78;5072562;28;20039;-70
2021/01/16 04:28:28;;;;;;;8.43;4.57;;;;;;;-4.01;98.74;101758.06;5061139;28;20117;-70
2021/01/16 04:30:54;;;;;;;7.70;4.03;;;;;;;-4.03;98.76;101758.00;5053590;28;20660;-70
2021/01/16 04:33:20;;;;;;;8.20;4.60;;;;;;;-4.00;98.97;101757.28;5076701;28;20090;-70
2021/01/16 04:35:46;;;;;;;8.40;4.27;;;;;;;-4.03;99.27;101754.53;5051409;28;20059;-70
2021/01/16 04:38:13;;;;;;;7.17;4.13;;;;;;;-4.05;99.40;101746.66;5074923;28;20040;-70
2021/01/16 04:40:39;;;;;;;7.43;4.40;;;;;;;-4.04;99.69;101744.97;5054256;28;20610;-70
2021/01/16 04:43:05;;;;;;;10.40;5.00;;;;;;;-4.02;99.91;101751.13;5054387;28;20036;-70
2021/01/16 04:45:32;;;;;;;8.37;4.40;;;;;;;-4.02;100.00;101745.97;5055882;28;20048;-70
2021/01/16 04:48:00;;;;;;;8.00;4.47;;;;;;;-4.00;99.74;101744.34;5044148;28;20032;-70
2021/01/16 04:50:30;;;;;;;7.90;4.07;;;;;;;-4.01;100.00;101742.59;5062757;28;20048;-70
2021/01/16 04:53:05;;;;;;;8.80;5.63;;;;;;;-3.99;100.00;101739.28;5045006;28;20404;-70
2021/01/16 04:55:33;;;;;;;8.73;4.37;;;;;;;-3.97;100.00;101740.25;5054487;28;20039;-70
2021/01/16 04:58:08;;;;;;;8.57;4.07;;;;;;;-3.98;100.00;101733.31;5052802;28;20045;-70
2021/01/16 05:00:36;;;;;;;9.18;4.60;;;;;;;-3.98;100.00;101730.72;5054533;28;20452;-70
2021/01/16 05:03:07;;;;;;;8.30;4.07;;;;;;;-3.99;100.00;101735.81;5055674;28;20094;-70
2021/01/16 05:05:38;;;;;;;7.73;4.13;;;;;;;-3.99;100.00;101734.13;5052403;28;20040;-70
2021/01/16 05:08:05;;;;;;;8.63;4.70;;;;;;;-3.99;100.00;101731.53;5054130;28;20048;-70
2021/01/16 05:10:37;;;;;;;7.83;4.20;;;;;;;-3.98;100.00;101733.31;5072399;28;20841;-70
2021/01/16 05:13:09;;;;;;;9.03;4.83;;;;;;;-3.99;100.00;101723.78;5071273;28;20036;-70
2021/01/16 05:15:40;;;;;;;9.37;4.77;;;;;;;-3.99;100.00;101726.38;5070460;28;20040;-70
2021/01/16 05:18:11;;;;;;;9.10;4.13;;;;;;;-3.98;100.00;101727.25;5071016;28;20109;-70
2021/01/16 05:20:42;;;;;;;8.67;4.50;;;;;;;-3.98;100.00;101716.94;5069797;28;20044;-70
2021/01/16 05:23:13;;;;;;;8.53;4.37;;;;;;;-3.97;100.00;101727.34;5063060;28;20039;-70
2021/01/16 05:25:40;;;;;;;7.93;4.47;;;;;;;-3.98;100.00;101717.81;5066643;28;20055;-70
2021/01/16 05:28:07;;;;;;;7.60;4.03;;;;;;;-3.97;100.00;101713.53;5045197;28;20433;-70
2021/01/16 05:30:55;;;;;;;8.07;4.50;;;;;;;-3.97;100.00;101718.72;5067477;28;20036;-70
2021/01/16 05:33:24;;;;;;;8.93;5.20;;;;;;;-3.98;100.00;101722.09;5057553;28;20036;-70
2021/01/16 05:35:52;;;;;;;9.20;5.30;;;;;;;-3.98;100.00;101717.81;5052138;28;20072;-70
2021/01/16 05:38:26;;;;;;;9.63;4.87;;;;;;;-3.93;100.00;101714.63;5048919;28;20040;-70
2021/01/16 05:40:55;;;;;;;7.93;4.75;;;;;;;-3.97;100.00;101717.00;5066739;28;20052;-70
2021/01/16 05:43:22;;;;;;;8.30;4.30;;;;;;;-3.98;100.00;101716.94;5056341;28;20044;-70
2021/01/16 05:45:52;;;;;;;8.60;4.30;;;;;;;-4.01;100.00;101715.09;5030751;28;20145;-70
2021/01/16 05:48:18;;;;;;;8.33;4.83;;;;;;;-3.98;100.00;101722.09;5050878;28;20094;-70
2021/01/16 05:50:46;;;;;;;6.73;4.73;;;;;;;-3.98;100.00;101712.66;5069176;28;20039;-70
2021/01/16 05:53:12;;;;;;;8.03;4.50;;;;;;;-3.97;100.00;101714.44;5074906;28;20106;-70
2021/01/16 05:55:39;;;;;;;8.27;5.00;;;;;;;-3.99;100.00;101710.88;5049746;28;20037;-70
2021/01/16 05:58:07;;;;;;;10.07;4.87;;;;;;;-4.00;100.00;101710.81;5068448;28;20040;-70
2021/01/16 06:00:36;;;;;;;7.40;4.20;;;;;;;-4.01;100.00;101707.34;5065252;28;20036;-70
2021/01/16 06:03:04;;;;;;;8.87;4.67;;;;;;;-3.99;100.00;101707.41;5048846;28;20052;-70
2021/01/16 06:05:31;;;;;;;9.17;5.20;;;;;;;-3.99;100.00;101710.88;5065958;28;20033;-70
2021/01/16 06:07:57;;;;;;;10.23;5.13;;;;;;;-3.99;100.00;101710.88;5062154;28;20375;-70
2021/01/16 06:10:24;;;;;;;10.30;5.10;;;;;;;-3.99;100.00;101700.56;5054710;28;20064;-70
2021/01/16 06:12:51;;;;;;;10.37;5.47;;;;;;;-3.99;100.00;101700.56;5072892;28;20047;-70
2021/01/16 06:15:19;;;;;;;9.73;4.73;;;;;;;-4.00;100.00;101696.22;5042072;28;20485;-70
2021/01/16 06:17:50;;;;;;;10.13;5.00;;;;;;;-3.99;100.00;101694.50;5029940;28;20402;-70
2021/01/16 06:20:19;;;;;;;10.97;5.03;;;;;;;-3.97;100.00;101691.19;5033119;28;20618;-70
2021/01/16 06:22:49;;;;;;;8.63;5.00;;;;;;;-3.97;100.00;101693.78;5069276;28;20048;-70
2021/01/16 06:25:24;;;;;;;9.77;5.40;;;;;;;-3.96;100.00;101694.66;5034632;28;20036;-70
2021/01/16 06:27:51;;;;;;;8.40;4.33;;;;;;;-3.99;100.00;101679.91;5072134;28;20048;-70
2021/01/16 06:30:19;;;;;;;8.07;5.10;;;;;;;-3.97;100.00;101690.31;5071676;28;20037;-70
2021/01/16 06:32:51;;;;;;;9.20;5.33;;;;;;;-3.97;100.00;101686.03;5029726;28;20036;-70
2021/01/16 06:35:18;;;;;;;11.87;6.10;;;;;;;-3.96;100.00;101679.19;5031492;28;20044;-70
2021/01/16 06:37:49;;;;;;;11.07;5.37;;;;;;;-3.94;100.00;101679.28;5033803;28;20036;-70
2021/01/16 06:40:31;;;;;;;11.20;5.17;;;;;;;-3.95;100.00;101680.97;5067322;28;20040;-70
2021/01/16 06:42:58;;;;;;;10.87;5.30;;;;;;;-3.95;100.00;101686.16;5048885;28;20453;-70
2021/01/16 06:45:29;;;;;;;9.33;5.50;;;;;;;-3.94;100.00;101680.19;5067258;28;20029;-70
2021/01/16 06:47:58;;;;;;;10.37;5.43;;;;;;;-3.91;100.00;101685.50;5046564;28;20081;-70
2021/01/16 06:50:25;;;;;;;10.17;5.20;;;;;;;-3.91;100.00;101682.91;5045717;28;20098;-70
2021/01/16 06:52:51;;;;;;;8.00;4.67;;;;;;;-3.90;100.00;101688.97;5066752;28;20226;-70
2021/01/16 06:55:19;;;;;;;11.67;5.67;;;;;;;-3.90;100.00;101679.53;5050871;28;20041;-70
2021/01/16 06:57:45;;;;;;;10.47;5.13;;;;;;;-3.86;100.00;101696.09;5057558;28;20110;-70
2021/01/16 07:00:12;;;;;;;11.20;5.93;;;;;;;-3.85;100.00;101691.00;5054231;28;20046;-70
2021/01/16 07:02:39;;;;;;;10.23;4.93;;;;;;;-3.83;100.00;101686.78;5050647;28;20070;-70
2021/01/16 07:05:09;;;;;;;9.37;5.07;;;;;;;-3.84;100.00;101678.97;5051796;28;20139;-70
2021/01/16 07:07:39;;;;;;;8.13;4.90;;;;;;;-3.85;100.00;101683.25;5066295;28;20044;-70
2021/01/16 07:10:08;;;;;;;12.23;5.60;;;;;;;-3.85;100.00;101674.63;5060366;28;20044;-70
2021/01/16 07:12:35;;;;;;;11.60;6.30;;;;;;;-3.83;100.00;101685.91;5045307;28;20032;-70
2021/01/16 07:15:05;;;;;;;12.97;5.87;;;;;;;-3.85;100.00;101678.09;5050267;28;20414;-70
2021/01/16 07:17:31;;;;;;;14.07;6.93;;;;;;;-3.86;100.00;101672.84;5070846;28;20094;-70
2021/01/16 07:19:59;;;;;;;16.87;9.47;;;;;;;-3.85;100.00;101677.19;5051507;28;20052;-70
2021/01/16 07:22:38;;;;;;;13.63;6.83;;;;;;;-3.85;100.00;101674.63;5038927;28;20035;-70
2021/01/16 07:25:06;;;;;;;12.53;6.43;;;;;;;-3.84;100.00;101679.84;5041417;28;20044;-70
2021/01/16 07:27:33;;;;;;;9.67;5.83;;;;;;;-3.83;100.00;101675.59;5042790;28;20051;-70
2021/01/16 07:30:00;;;;;;;9.63;6.53;;;;;;;-3.80;100.00;101684.38;5061588;28;20063;-70
2021/01/16 07:32:44;;;;;;;12.13;6.70;;;;;;;-3.77;100.00;101681.09;5043725;28;20033;-70
2021/01/16 07:35:12;;;;;;;13.73;7.03;;;;;;;-3.76;100.00;101688.03;5041539;28;20043;-70
2021/01/16 07:37:40;;;;;;;11.70;8.33;;;;;;;-3.73;100.00;101683.91;5043705;28;20125;-70
2021/01/16 07:40:23;;;;;;;11.83;5.97;;;;;;;-3.67;100.00;101670.44;5041402;28;20045;-70
2021/01/16 07:42:53;;;;;;;10.17;5.60;;;;;;;-3.62;100.00;101668.97;5044123;28;20048;-70
2021/01/16 07:45:24;;;;;;;11.97;6.20;;;;;;;-3.58;100.00;101667.44;5045095;28;20090;-70
2021/01/16 07:47:52;;;;;;;10.43;5.80;;;;;;;-3.55;100.00;101665.91;5063135;28;20040;-70
2021/01/16 07:50:22;;;;;;;10.27;6.10;;;;;;;-3.51;100.00;101660.09;5046240;28;20032;-70
2021/01/16 07:52:56;;;;;;;12.90;6.87;;;;;;;-3.47;100.00;101667.19;5044865;28;20517;-70
2021/01/16 07:55:29;;;;;;;12.00;6.50;;;;;;;-3.40;100.00;101663.22;5023515;28;20037;-70
2021/01/16 07:57:59;;;;;;;13.05;5.65;;;;;;;-3.37;100.00;101667.66;5046248;28;20055;-70
2021/01/16 08:00:27;;;;;;;12.73;7.13;;;;;;;-3.33;100.00;101661.84;5037099;28;20414;-70
2021/01/16 08:03:19;;;;;;;12.63;7.43;;;;;;;-3.28;100.00;101652.63;5045208;28;20090;-70
2021/01/16 08:05:52;;;;;;;13.67;7.43;;;;;;;-3.24;100.00;101658.03;5008896;28;20040;-70
2021/01/16 08:08:34;;;;;;;15.23;8.25;;;;;;;-3.19;100.00;101653.13;5044263;28;20478;-70
2021/01/16 08:11:02;;;;;;;14.67;7.83;;;;;;;-3.18;100.00;101647.13;5026989;28;20640;-70
2021/01/16 08:13:29;;;;;;;14.47;7.37;;;;;;;-3.16;100.00;101648.09;5044974;28;20404;-70
2021/01/16 08:16:02;;;;;;;12.53;6.40;;;;;;;-3.13;100.00;101638.78;5032722;28;20044;-70
2021/01/16 08:18:31;;;;;;;10.95;5.85;;;;;;;-3.12;100.00;101643.13;5036075;28;20037;-70
2021/01/16 08:21:04;;;;;;;12.37;6.30;;;;;;;-3.12;100.00;101639.69;5057192;28;20045;-70
2021/01/16 08:23:47;;;;;;;11.97;7.07;;;;;;;-3.11;100.00;101636.31;5049485;28;20043;-70
2021/01/16 08:26:14;;;;;;;15.93;8.93;;;;;;;-3.08;100.00;101640.72;5066444;28;20094;-70
2021/01/16 08:28:43;;;;;;;14.10;7.17;;;;;;;-3.04;100.00;101637.47;5031139;28;20056;-70
2021/01/16 08:31:27;;;;;;;17.33;7.37;;;;;;;-3.01;100.00;101627.31;5050565;28;20154;-70
2021/01/16 08:33:53;;;;;;;13.38;5.93;;;;;;;-2.95;100.00;101636.22;5066696;28;20032;-70
2021/01/16 08:36:20;;;;;;;16.43;6.03;;;;;;;-2.90;100.00;101631.31;5063504;28;20037;-70
2021/01/16 08:38:48;;;;;;;10.73;5.33;;;;;;;-2.87;100.00;101629.72;5046203;28;20043;-70
2021/01/16 08:41:26;;;;;;;12.97;6.43;;;;;;;-2.84;100.00;101629.91;5051661;28;20133;-70
2021/01/16 08:43:58;;;;;;;15.10;7.60;;;;;;;-2.83;100.00;101634.25;5049630;28;20048;-70
2021/01/16 08:46:32;;;;;;;11.37;6.30;;;;;;;-2.85;100.00;101641.06;5057914;28;20039;-70
2021/01/16 08:49:09;;;;;;;11.87;6.33;;;;;;;-2.80;100.00;101637.81;5034868;28;20067;-70
2021/01/16 08:51:44;;;;;;;17.83;8.27;;;;;;;-2.79;99.73;101629.22;5030861;28;20053;-70
2021/01/16 08:54:18;;;;;;;15.43;8.63;;;;;;;-2.74;100.00;101622.59;5043523;28;20359;-70
2021/01/16 08:56:48;;;;;;;11.13;6.60;;;;;;;-2.69;99.66;101623.69;5064765;28;20037;-70
2021/01/16 08:59:16;;;;;;;14.37;6.77;;;;;;;-2.59;98.77;101621.63;5051049;28;20052;-70
2021/01/16 09:01:43;;;;;;;12.43;6.67;;;;;;;-2.46;97.92;101619.63;5068261;28;20044;-70
2021/01/16 09:04:22;;;;;;;11.47;6.93;;;;;;;-2.32;96.86;101616.00;5036039;28;20045;-70
2021/01/16 09:06:50;;;;;;;12.40;7.37;;;;;;;-2.16;96.01;101621.06;5051630;28;20033;-69
2021/01/16 09:09:23;;;;;;;10.57;5.97;;;;;;;-2.04;95.22;101616.44;5052025;28;20101;-70
2021/01/16 09:12:11;;;;;;;11.65;6.25;;;;;;;-1.91;93.82;101611.81;5052189;28;20032;-70
2021/01/16 09:14:39;;;;;;;13.87;6.83;;;;;;;-1.82;93.63;101614.81;5069738;28;20049;-70
2021/01/16 09:17:15;;;;;;;10.73;5.93;;;;;;;-1.71;93.11;101611.00;5074899;28;20117;-70
2021/01/16 09:19:42;;;;;;;12.03;6.60;;;;;;;-1.62;92.71;101610.53;5036731;28;20045;-70
2021/01/16 09:22:27;;;;;;;11.30;5.90;;;;;;;-1.57;91.88;101603.84;5047922;28;20032;-70
2021/01/16 09:25:28;;;;;;;11.30;5.53;;;;;;;-1.52;91.35;101607.50;5053211;28;20089;-70
2021/01/16 09:27:54;;;;;;;9.73;6.40;;;;;;;-1.48;91.34;101612.91;5068438;28;20060;-70
2021/01/16 09:30:25;;;;;;;9.60;5.30;;;;;;;-1.36;91.15;101611.66;5009838;28;20045;-70
2021/01/16 09:32:51;;;;;;;9.53;4.93;;;;;;;-1.34;88.96;101604.84;5037549;28;20048;-70
2021/01/16 09:35:38;;;;;;;10.40;5.10;;;;;;;-1.38;87.19;101603.81;5036728;28;20052;-70
2021/01/16 09:38:15;;;;;;;11.07;5.97;;;;;;;-1.41;88.92;101595.91;5054522;28;20490;-70
2021/01/16 09:40:41;;;;;;;12.43;5.83;;;;;;;-1.40;88.91;101600.28;5055591;28;20359;-70
2021/01/16 09:43:18;;;;;;;10.93;6.03;;;;;;;-1.40;88.78;101587.31;5053737;28;20028;-70
2021/01/16 09:46:00;;;;;;;10.17;5.90;;;;;;;-1.36;88.76;101590.91;5035402;28;20033;-70
2021/01/16 09:48:42;;;;;;;12.10;5.83;;;;;;;-1.27;88.74;101589.59;5036677;28;20048;-70
2021/01/16 09:51:10;;;;;;;9.60;5.87;;;;;;;-1.21;87.27;101591.56;5059234;28;20041;-70
2021/01/16 09:53:37;;;;;;;9.37;5.63;;;;;;;-1.27;86.66;101579.22;5025033;28;20094;-70
2021/01/16 09:56:05;;;;;;;11.07;5.50;;;;;;;-1.37;87.42;101582.25;5040831;28;20088;-70
2021/01/16 09:58:36;;;;;;;16.63;7.73;;;;;;;-1.45;87.57;101586.22;5039563;28;20032;-70
2021/01/16 10:01:14;;;;;;;12.37;6.40;;;;;;;-1.39;87.44;101583.00;5053130;28;20041;-70
2021/01/16 10:03:41;;;;;;;9.73;5.97;;;;;;;-1.45;87.16;101579.34;5041847;28;20562;-70
2021/01/16 10:06:07;;;;;;;10.33;5.93;;;;;;;-1.34;88.36;101591.88;5034967;28;20043;-70
2021/01/16 10:08:34;;;;;;;9.27;5.00;;;;;;;-1.25;87.50;101582.78;5048162;28;20032;-70
2021/01/16 10:11:01;;;;;;;12.07;6.40;;;;;;;-1.11;87.27;101585.94;5049428;28;20048;-71
2021/01/16 10:13:35;;;;;;;13.17;7.73;;;;;;;-1.09;86.55;101588.59;5039358;28;20045;-70
2021/01/16 10:16:04;;;;;;;19.52;9.63;;;;;;;-1.21;85.96;101587.25;5051528;28;20034;-70
2021/01/16 10:18:33;;;;;;;13.20;6.90;;;;;;;-1.09;86.88;101583.41;5051397;28;20045;-70
2021/01/16 10:21:02;;;;;;;118.67;40.10;;;;;;;-1.06;85.39;101570.56;5045645;28;20036;-70
2021/01/16 10:23:30;;;;;;;18.17;9.20;;;;;;;-0.91;85.54;101564.31;5056562;28;20036;-70
2021/01/16 10:26:01;;;;;;;10.93;5.90;;;;;;;-0.73;85.58;101561.56;5040379;28;20078;-71
2021/01/16 10:28:28;;;;;;;26.97;9.77;;;;;;;-0.55;84.92;101566.59;5057874;28;20037;-70
2021/01/16 10:31:00;;;;;;;16.70;8.83;;;;;;;-0.39;85.72;101553.38;5042993;28;20044;-71
2021/01/16 10:33:28;;;;;;;11.97;6.13;;;;;;;-0.39;82.77;101558.56;5051977;28;20150;-70
2021/01/16 10:36:06;;;;;;;13.93;6.83;;;;;;;-0.46;82.34;101547.88;5033611;28;20452;-70
2021/01/16 10:38:41;;;;;;;9.03;4.83;;;;;;;-0.48;82.58;101549.53;5053509;28;20353;-70
2021/01/16 10:41:09;;;;;;;8.97;5.57;;;;;;;-0.55;82.81;101543.22;5054874;28;20048;-70
2021/01/16 10:43:36;;;;;;;8.40;5.20;;;;;;;-0.60;83.41;101548.22;5050565;28;20041;-70
2021/01/16 10:46:09;;;;;;;9.33;6.47;;;;;;;-0.82;82.85;101539.56;5034678;28;20517;-71
2021/01/16 10:48:39;;;;;;;10.82;5.82;;;;;;;-0.89;83.50;101536.72;5040573;28;20040;-71
2021/01/16 10:51:08;;;;;;;9.07;5.23;;;;;;;-0.98;82.73;101533.75;5049742;28;20048;-70
2021/01/16 10:53:39;;;;;;;8.60;5.67;;;;;;;-1.00;82.66;101535.41;5038135;28;20227;-70
2021/01/16 10:56:23;;;;;;;11.03;6.03;;;;;;;-1.00;83.00;101531.94;5051100;28;20116;-70
2021/01/16 10:58:50;;;;;;;10.27;5.93;;;;;;;-1.01;83.29;101519.75;5068395;28;20120;-70
2021/01/16 11:01:45;;;;;;;8.60;4.87;;;;;;;-1.02;84.44;101524.06;5060104;28;20158;-71
2021/01/16 11:04:26;;;;;;;9.13;5.17;;;;;;;-1.06;84.52;101510.94;5057763;28;20036;-70
2021/01/16 11:06:58;;;;;;;8.90;5.53;;;;;;;-1.23;83.86;101512.84;5036684;28;20045;-70
2021/01/16 11:09:37;;;;;;;8.67;4.87;;;;;;;-1.33;83.39;101502.94;5043042;28;20036;-71
2021/01/16 11:12:07;;;;;;;9.50;5.17;;;;;;;-1.33;83.15;101500.34;5057730;28;20588;-70
2021/01/16 11:14:41;;;;;;;9.63;5.23;;;;;;;-1.32;83.75;101490.03;5034219;28;20040;-70
2021/01/16 11:17:09;;;;;;;8.05;4.78;;;;;;;-1.22;84.38;101486.09;5042434;28;20036;-70
2021/01/16 11:19:44;;;;;;;9.80;5.53;;;;;;;-1.18;83.07;101491.47;5037597;28;20048;-71
2021/01/16 11:22:14;;;;;;;;;;;;;;;-1.07;83.17;101485.81;5040410;28;20506;-70
2021/01/16 11:24:55;;;;;;;7.33;4.33;;;;;;;-0.91;81.69;101477.81;5036566;28;19931;-71
2021/01/16 11:27:22;;;;;;;8.30;4.07;;;;;;;-0.76;81.58;101474.91;5060251;28;20044;-71
2021/01/16 11:29:49;;;;;;;8.73;4.40;;;;;;;-0.41;82.24;101474.56;5049872;28;20040;-70
2021/01/16 11:32:19;;;;;;;8.90;4.40;;;;;;;-0.07;81.92;101466.25;5033391;28;20440;-71